createdAt,value
2023-05-19T00:01:25.159Z,100.00
2023-05-19T00:03:55.981Z,100.00
2023-05-19T00:06:25.565Z,100.00
2023-05-19T00:09:07.663Z,100.00
2023-05-19T00:11:36.806Z,100.00
2023-05-19T00:14:07.305Z,100.00
2023-05-19T00:16:35.249Z,100.00
2023-05-19T00:19:05.487Z,100.00
2023-05-19T00:21:33.392Z,100.00
2023-05-19T00:24:01.432Z,100.00
2023-05-19T00:26:29.015Z,100.00
2023-05-19T00:28:56.903Z,100.00
2023-05-19T00:31:24.498Z,100.00
2023-05-19T00:33:52.443Z,100.00
2023-05-19T00:36:20.507Z,100.00
2023-05-19T00:38:48.118Z,100.00
2023-05-19T00:41:15.789Z,100.00
2023-05-19T00:43:43.753Z,100.00
2023-05-19T00:46:11.415Z,100.00
2023-05-19T00:48:39.318Z,100.00
2023-05-19T00:51:07.419Z,100.00
2023-05-19T00:53:35.584Z,100.00
2023-05-19T00:56:03.565Z,100.00
2023-05-19T00:58:32.812Z,100.00
2023-05-19T01:01:07.007Z,100.00
2023-05-19T01:03:36.329Z,100.00
2023-05-19T01:06:07.849Z,100.00
2023-05-19T01:08:38.197Z,100.00
2023-05-19T01:11:06.970Z,100.00
2023-05-19T01:13:36.340Z,100.00
2023-05-19T01:16:24.895Z,100.00
2023-05-19T01:19:01.764Z,100.00
2023-05-19T01:21:47.989Z,100.00
2023-05-19T01:24:30.575Z,100.00
2023-05-19T01:27:21.149Z,100.00
2023-05-19T01:30:09.544Z,100.00
2023-05-19T01:32:41.414Z,100.00
2023-05-19T01:35:10.616Z,100.00
2023-05-19T01:37:39.915Z,100.00
2023-05-19T01:40:10.923Z,100.00
2023-05-19T01:42:40.623Z,100.00
2023-05-19T01:45:11.841Z,100.00
2023-05-19T01:47:43.625Z,100.00
2023-05-19T01:50:11.485Z,100.00
2023-05-19T01:52:39.557Z,100.00
2023-05-19T01:55:09.005Z,100.00
2023-05-19T01:57:54.829Z,100.00
2023-05-19T02:00:58.958Z,100.00
2023-05-19T02:03:38.138Z,100.00
2023-05-19T02:06:24.596Z,99.96
2023-05-19T02:08:58.819Z,99.95
2023-05-19T02:11:42.313Z,99.26
2023-05-19T02:14:20.118Z,99.00
2023-05-19T02:16:48.905Z,99.16
2023-05-19T02:19:32.125Z,99.26
2023-05-19T02:22:00.126Z,99.78
2023-05-19T02:24:27.698Z,100.00
2023-05-19T02:26:55.306Z,100.00
2023-05-19T02:29:23.208Z,100.00
2023-05-19T02:31:51.374Z,100.00
2023-05-19T02:34:19.747Z,100.00
2023-05-19T02:36:49.962Z,100.00
2023-05-19T02:39:17.716Z,100.00
2023-05-19T02:41:45.393Z,100.00
2023-05-19T02:44:13.258Z,100.00
2023-05-19T02:46:41.032Z,100.00
2023-05-19T02:49:08.625Z,100.00
2023-05-19T02:51:36.436Z,100.00
2023-05-19T02:54:04.106Z,100.00
2023-05-19T02:56:31.728Z,100.00
2023-05-19T02:58:59.649Z,100.00
2023-05-19T03:01:27.264Z,100.00
2023-05-19T03:03:54.962Z,100.00
2023-05-19T03:06:23.528Z,100.00
2023-05-19T03:08:51.277Z,100.00
2023-05-19T03:11:18.833Z,100.00
2023-05-19T03:13:46.778Z,100.00
2023-05-19T03:16:14.596Z,100.00
2023-05-19T03:18:42.236Z,100.00
2023-05-19T03:21:10.074Z,100.00
2023-05-19T03:23:37.630Z,100.00
2023-05-19T03:26:05.493Z,100.00
2023-05-19T03:28:33.439Z,100.00
2023-05-19T03:31:01.057Z,100.00
2023-05-19T03:33:30.042Z,100.00
2023-05-19T03:35:58.086Z,100.00
2023-05-19T03:38:25.894Z,100.00
2023-05-19T03:40:53.877Z,100.00
2023-05-19T03:43:21.926Z,100.00
2023-05-19T03:45:49.895Z,100.00
2023-05-19T03:48:21.118Z,100.00
2023-05-19T03:50:50.225Z,100.00
2023-05-19T03:53:17.955Z,100.00
2023-05-19T03:55:46.362Z,100.00
2023-05-19T03:58:14.688Z,100.00
2023-05-19T04:00:42.800Z,100.00
2023-05-19T04:03:10.797Z,100.00
2023-05-19T04:05:38.622Z,100.00
2023-05-19T04:08:06.244Z,100.00
2023-05-19T04:10:34.620Z,100.00
2023-05-19T04:13:02.267Z,100.00
2023-05-19T04:15:29.861Z,100.00
2023-05-19T04:17:57.838Z,100.00
2023-05-19T04:20:25.605Z,100.00
2023-05-19T04:22:53.198Z,100.00
2023-05-19T04:25:21.200Z,100.00
2023-05-19T04:27:49.313Z,100.00
2023-05-19T04:30:22.447Z,100.00
2023-05-19T04:32:51.255Z,100.00
2023-05-19T04:35:19.631Z,100.00
2023-05-19T04:37:47.445Z,100.00
2023-05-19T04:40:16.020Z,100.00
2023-05-19T04:42:46.091Z,100.00
2023-05-19T04:45:14.211Z,100.00
2023-05-19T04:47:42.539Z,100.00
2023-05-19T04:50:11.412Z,100.00
2023-05-19T04:52:39.008Z,100.00
2023-05-19T04:55:07.730Z,100.00
2023-05-19T04:57:35.776Z,100.00
2023-05-19T05:00:09.021Z,100.00
2023-05-19T05:02:37.898Z,100.00
2023-05-19T05:05:06.018Z,100.00
2023-05-19T05:07:33.593Z,100.00
2023-05-19T05:10:01.742Z,100.00
2023-05-19T05:12:31.040Z,100.00
2023-05-19T05:14:59.048Z,99.83
2023-05-19T05:17:28.370Z,99.73
2023-05-19T05:19:56.288Z,99.25
2023-05-19T05:22:24.123Z,99.10
2023-05-19T05:24:53.052Z,99.13
2023-05-19T05:27:21.499Z,98.92
2023-05-19T05:29:50.610Z,99.14
2023-05-19T05:32:20.443Z,99.43
2023-05-19T05:34:48.114Z,99.43
2023-05-19T05:37:16.106Z,99.55
2023-05-19T05:39:43.989Z,99.20
2023-05-19T05:42:12.098Z,98.78
2023-05-19T05:44:40.618Z,98.62
2023-05-19T05:47:08.991Z,98.80
2023-05-19T05:49:38.206Z,98.68
2023-05-19T05:52:08.431Z,98.70
2023-05-19T05:54:38.263Z,98.88
2023-05-19T05:57:06.501Z,98.90
2023-05-19T05:59:34.163Z,98.71
2023-05-19T06:02:02.137Z,98.48
2023-05-19T06:04:31.125Z,97.92
2023-05-19T06:07:01.708Z,97.78
2023-05-19T06:09:30.815Z,97.35
2023-05-19T06:12:00.334Z,96.77
2023-05-19T06:14:28.785Z,97.01
2023-05-19T06:17:03.936Z,97.29
2023-05-19T06:19:32.110Z,97.07
2023-05-19T06:22:00.008Z,96.80
2023-05-19T06:24:27.727Z,96.65
2023-05-19T06:26:55.327Z,96.61
2023-05-19T06:29:23.240Z,95.51
2023-05-19T06:31:51.620Z,95.47
2023-05-19T06:34:21.120Z,95.23
2023-05-19T06:36:49.176Z,94.88
2023-05-19T06:39:16.961Z,95.21
2023-05-19T06:41:44.573Z,95.16
2023-05-19T06:44:23.576Z,95.40
2023-05-19T06:46:51.238Z,95.31
2023-05-19T06:49:20.078Z,95.27
2023-05-19T06:51:49.297Z,95.74
2023-05-19T06:54:17.028Z,95.68
2023-05-19T06:56:45.315Z,95.39
2023-05-19T06:59:13.977Z,95.60
2023-05-19T07:01:41.572Z,95.20
2023-05-19T07:04:09.493Z,95.82
2023-05-19T07:06:37.278Z,96.39
2023-05-19T07:09:05.570Z,96.16
2023-05-19T07:11:33.840Z,96.53
2023-05-19T07:14:02.272Z,96.39
2023-05-19T07:16:31.413Z,96.37
2023-05-19T07:18:59.957Z,96.29
2023-05-19T07:21:27.528Z,96.53
2023-05-19T07:23:55.173Z,96.41
2023-05-19T07:26:23.682Z,96.83
2023-05-19T07:28:51.990Z,96.67
2023-05-19T07:31:19.664Z,97.18
2023-05-19T07:33:47.585Z,97.87
2023-05-19T07:36:15.216Z,97.68
2023-05-19T07:38:42.790Z,97.79
2023-05-19T07:41:11.071Z,97.76
2023-05-19T07:43:38.740Z,97.70
2023-05-19T07:46:06.511Z,97.67
2023-05-19T07:48:34.369Z,97.67
2023-05-19T07:51:02.557Z,97.72
2023-05-19T07:53:30.196Z,97.80
2023-05-19T07:55:58.790Z,97.83
2023-05-19T07:58:26.774Z,97.71
2023-05-19T08:00:59.564Z,97.75
2023-05-19T08:03:27.896Z,97.65
2023-05-19T08:05:55.627Z,97.85
2023-05-19T08:08:23.368Z,97.68
2023-05-19T08:10:51.574Z,97.69
2023-05-19T08:13:19.174Z,97.32
2023-05-19T08:15:46.877Z,97.27
2023-05-19T08:18:14.759Z,97.05
2023-05-19T08:20:42.342Z,97.28
2023-05-19T08:23:09.919Z,97.06
2023-05-19T08:25:37.770Z,97.29
2023-05-19T08:28:05.371Z,97.39
2023-05-19T08:30:33.094Z,97.33
2023-05-19T08:33:01.479Z,97.49
2023-05-19T08:35:29.141Z,97.72
2023-05-19T08:37:56.835Z,98.25
2023-05-19T08:40:27.364Z,97.90
2023-05-19T08:42:54.971Z,98.00
2023-05-19T08:45:22.633Z,97.83
2023-05-19T08:47:51.530Z,97.81
2023-05-19T08:50:25.583Z,97.17
2023-05-19T08:53:02.459Z,97.73
2023-05-19T08:55:55.602Z,97.04
2023-05-19T08:58:23.652Z,96.85
2023-05-19T09:00:52.295Z,94.34
2023-05-19T09:03:23.886Z,93.68
2023-05-19T09:05:52.221Z,92.06
2023-05-19T09:08:20.039Z,90.67
2023-05-19T09:10:47.567Z,89.91
2023-05-19T09:13:15.980Z,88.27
2023-05-19T09:15:45.623Z,88.21
2023-05-19T09:18:15.257Z,88.24
2023-05-19T09:20:44.375Z,89.04
2023-05-19T09:23:16.607Z,87.82
2023-05-19T09:25:52.460Z,87.22
2023-05-19T09:28:31.653Z,86.55
2023-05-19T09:31:04.808Z,84.33
2023-05-19T09:33:37.524Z,84.27
2023-05-19T09:36:06.565Z,83.14
2023-05-19T09:38:35.835Z,82.12
2023-05-19T09:41:05.162Z,81.36
2023-05-19T09:43:34.907Z,81.81
2023-05-19T09:46:06.951Z,80.68
2023-05-19T09:48:36.696Z,80.86
2023-05-19T09:51:07.766Z,80.26
2023-05-19T09:53:35.979Z,79.79
2023-05-19T09:56:03.813Z,79.86
2023-05-19T09:58:35.434Z,78.72
2023-05-19T10:01:04.830Z,77.80
2023-05-19T10:03:33.900Z,76.97
2023-05-19T10:06:02.358Z,76.90
2023-05-19T10:08:31.003Z,77.03
2023-05-19T10:10:59.944Z,75.82
2023-05-19T10:13:29.623Z,75.31
2023-05-19T10:15:59.780Z,74.79
2023-05-19T10:18:29.805Z,73.87
2023-05-19T10:20:58.266Z,74.31
2023-05-19T10:23:26.733Z,74.12
2023-05-19T10:25:59.153Z,73.36
2023-05-19T10:28:35.641Z,73.09
2023-05-19T10:31:06.952Z,72.81
2023-05-19T10:34:19.163Z,72.57
2023-05-19T10:37:02.477Z,72.29
2023-05-19T10:39:37.591Z,72.91
2023-05-19T10:42:14.667Z,72.85
2023-05-19T10:44:54.192Z,72.29
2023-05-19T10:47:26.368Z,71.71
2023-05-19T10:49:54.657Z,71.14
2023-05-19T10:52:27.265Z,71.28
2023-05-19T10:54:54.997Z,70.16
2023-05-19T10:57:32.041Z,69.50
2023-05-19T11:00:08.243Z,69.94
2023-05-19T11:02:44.108Z,70.25
2023-05-19T11:05:15.097Z,68.92
2023-05-19T11:07:44.716Z,69.24
2023-05-19T11:10:12.814Z,68.33
2023-05-19T11:12:45.960Z,68.61
2023-05-19T11:15:15.875Z,69.00
2023-05-19T11:17:48.721Z,69.27
2023-05-19T11:20:24.315Z,69.64
2023-05-19T11:23:04.016Z,69.97
2023-05-19T11:25:41.717Z,70.04
2023-05-19T11:28:12.267Z,70.47
2023-05-19T11:30:43.464Z,69.76
2023-05-19T11:33:11.227Z,70.04
2023-05-19T11:35:39.892Z,70.20
2023-05-19T11:38:08.132Z,69.60
2023-05-19T11:40:36.444Z,69.35
2023-05-19T11:43:04.001Z,68.35
2023-05-19T11:45:33.114Z,68.08
2023-05-19T11:48:04.091Z,67.73
2023-05-19T11:50:32.888Z,67.37
2023-05-19T11:53:01.553Z,66.35
2023-05-19T11:55:30.138Z,65.88
2023-05-19T11:58:05.564Z,65.62
2023-05-19T12:00:40.397Z,65.23
2023-05-19T12:03:09.574Z,65.37
2023-05-19T12:05:43.084Z,64.94
2023-05-19T12:08:12.182Z,64.93
2023-05-19T12:10:40.238Z,65.54
2023-05-19T12:13:11.440Z,65.44
2023-05-19T12:15:39.647Z,65.10
2023-05-19T12:18:07.574Z,65.17
2023-05-19T12:20:36.159Z,65.02
2023-05-19T12:23:05.231Z,65.07
2023-05-19T12:25:33.207Z,66.31
2023-05-19T12:28:05.205Z,65.94
2023-05-19T12:30:34.700Z,66.15
2023-05-19T12:33:03.307Z,66.01
2023-05-19T12:35:36.385Z,66.95
2023-05-19T12:38:05.233Z,66.80
2023-05-19T12:40:37.789Z,65.93
2023-05-19T12:43:07.019Z,65.09
2023-05-19T12:45:38.636Z,64.88
2023-05-19T12:48:12.053Z,65.39
2023-05-19T12:50:39.801Z,64.53
2023-05-19T12:53:14.645Z,64.90
2023-05-19T12:55:44.671Z,62.71
2023-05-19T12:58:13.366Z,63.40
2023-05-19T13:00:43.582Z,63.93
2023-05-19T13:03:19.652Z,63.95
2023-05-19T13:05:50.707Z,63.94
2023-05-19T13:08:21.633Z,64.38
2023-05-19T13:10:50.065Z,64.20
2023-05-19T13:13:17.957Z,63.24
2023-05-19T13:15:49.172Z,62.50
2023-05-19T13:18:17.779Z,62.33
2023-05-19T13:20:47.164Z,62.65
2023-05-19T13:23:15.211Z,63.77
2023-05-19T13:25:43.881Z,63.85
2023-05-19T13:28:12.233Z,64.20
2023-05-19T13:30:41.748Z,64.80
2023-05-19T13:33:09.857Z,64.86
2023-05-19T13:35:38.153Z,64.63
2023-05-19T13:38:10.464Z,64.37
2023-05-19T13:40:39.890Z,64.74
2023-05-19T13:43:08.825Z,64.57
2023-05-19T13:45:36.918Z,64.72
2023-05-19T13:48:07.456Z,65.12
2023-05-19T13:50:35.380Z,64.41
2023-05-19T13:53:04.020Z,64.50
2023-05-19T13:55:32.853Z,64.81
2023-05-19T13:58:00.449Z,64.23
2023-05-19T14:00:28.054Z,64.94
2023-05-19T14:02:56.006Z,65.23
2023-05-19T14:05:23.616Z,64.88
2023-05-19T14:07:51.761Z,64.76
2023-05-19T14:10:19.785Z,64.32
2023-05-19T14:13:14.145Z,63.94
2023-05-19T14:15:38.100Z,63.19
2023-05-19T14:18:06.951Z,62.50
2023-05-19T14:20:35.774Z,62.56
2023-05-19T14:23:03.673Z,62.88
2023-05-19T14:25:31.311Z,62.66
2023-05-19T14:27:59.308Z,62.77
2023-05-19T14:30:26.935Z,62.89
2023-05-19T14:32:54.531Z,62.84
2023-05-19T14:35:23.106Z,62.68
2023-05-19T14:37:51.774Z,63.15
2023-05-19T14:40:19.447Z,63.33
2023-05-19T14:42:47.490Z,63.29
2023-05-19T14:45:15.250Z,62.96
2023-05-19T14:47:42.897Z,62.77
2023-05-19T14:50:10.739Z,63.15
2023-05-19T14:52:38.629Z,62.87
2023-05-19T14:55:06.520Z,62.50
2023-05-19T14:57:34.423Z,62.16
2023-05-19T15:00:02.404Z,61.64
2023-05-19T15:02:31.012Z,62.05
2023-05-19T15:05:00.154Z,62.49
2023-05-19T15:07:27.763Z,62.34
2023-05-19T15:09:55.620Z,62.27
2023-05-19T15:12:23.493Z,62.56
2023-05-19T15:14:51.213Z,62.92
2023-05-19T15:17:19.095Z,63.18
2023-05-19T15:19:47.085Z,64.05
2023-05-19T15:22:14.898Z,64.39
2023-05-19T15:24:42.704Z,65.02
2023-05-19T15:27:10.902Z,64.85
2023-05-19T15:29:38.471Z,64.64
2023-05-19T15:32:06.600Z,64.46
2023-05-19T15:34:34.661Z,63.97
2023-05-19T15:37:02.424Z,64.24
2023-05-19T15:39:31.454Z,64.48
2023-05-19T15:41:59.726Z,64.62
2023-05-19T15:44:29.008Z,64.72
2023-05-19T15:46:56.823Z,64.94
2023-05-19T15:49:25.364Z,65.39
2023-05-19T15:51:52.880Z,65.44
2023-05-19T15:54:20.476Z,65.03
2023-05-19T15:56:48.316Z,65.07
2023-05-19T15:59:15.848Z,64.78
2023-05-19T16:01:43.457Z,65.06
2023-05-19T16:04:11.466Z,65.04
2023-05-19T16:06:39.175Z,65.74
2023-05-19T16:09:06.752Z,66.28
2023-05-19T16:11:34.615Z,66.74
2023-05-19T16:14:02.178Z,67.40
2023-05-19T16:16:29.792Z,67.76
2023-05-19T16:18:57.721Z,68.10
2023-05-19T16:21:25.397Z,68.36
2023-05-19T16:23:52.993Z,68.57
2023-05-19T16:26:22.149Z,68.81
2023-05-19T16:28:49.656Z,68.76
2023-05-19T16:31:17.252Z,68.94
2023-05-19T16:33:45.352Z,69.30
2023-05-19T16:36:12.861Z,69.73
2023-05-19T16:38:40.461Z,69.48
2023-05-19T16:41:11.895Z,69.79
2023-05-19T16:43:39.552Z,69.48
2023-05-19T16:46:07.178Z,69.35
2023-05-19T16:48:35.172Z,69.29
2023-05-19T16:51:02.797Z,69.26
2023-05-19T16:53:31.198Z,69.15
2023-05-19T16:56:02.162Z,69.16
2023-05-19T16:58:31.058Z,69.21
2023-05-19T17:00:59.077Z,69.23
2023-05-19T17:03:26.714Z,69.51
2023-05-19T17:05:54.334Z,69.62
2023-05-19T17:08:22.175Z,69.68
2023-05-19T17:10:49.781Z,69.88
2023-05-19T17:13:17.481Z,69.85
2023-05-19T17:15:45.544Z,69.96
2023-05-19T17:18:13.289Z,69.97
2023-05-19T17:20:41.645Z,70.11
2023-05-19T17:23:09.653Z,70.16
2023-05-19T17:25:37.210Z,70.34
2023-05-19T17:28:04.831Z,70.47
2023-05-19T17:30:33.114Z,70.69
2023-05-19T17:33:00.929Z,70.88
2023-05-19T17:35:28.743Z,71.22
2023-05-19T17:37:57.937Z,71.48
2023-05-19T17:40:25.554Z,71.75
2023-05-19T17:42:53.128Z,72.02
2023-05-19T17:45:21.083Z,72.29
2023-05-19T17:47:48.745Z,72.42
2023-05-19T17:50:16.317Z,72.51
2023-05-19T17:52:44.927Z,72.76
2023-05-19T17:55:13.032Z,73.14
2023-05-19T17:57:45.031Z,73.68
2023-05-19T18:00:13.377Z,74.86
2023-05-19T18:02:41.517Z,75.39
2023-05-19T18:05:09.938Z,76.58
2023-05-19T18:07:39.656Z,77.16
2023-05-19T18:10:08.933Z,77.55
2023-05-19T18:12:36.735Z,77.54
2023-05-19T18:15:04.710Z,77.51
2023-05-19T18:17:32.666Z,77.89
2023-05-19T18:20:00.255Z,78.39
2023-05-19T18:22:27.791Z,78.98
2023-05-19T18:24:56.279Z,79.62
2023-05-19T18:27:23.900Z,79.91
2023-05-19T18:29:51.437Z,80.20
2023-05-19T18:32:19.362Z,80.42
2023-05-19T18:34:47.046Z,80.85
2023-05-19T18:37:14.793Z,81.06
2023-05-19T18:39:43.444Z,81.32
2023-05-19T18:42:11.421Z,81.95
2023-05-19T18:44:39.484Z,81.97
2023-05-19T18:47:23.780Z,82.24
2023-05-19T18:49:54.253Z,82.46
2023-05-19T18:52:22.209Z,82.92
2023-05-19T18:54:50.386Z,83.23
2023-05-19T18:57:17.946Z,83.52
2023-05-19T18:59:45.948Z,83.87
2023-05-19T19:02:13.519Z,84.34
2023-05-19T19:04:41.150Z,84.75
2023-05-19T19:07:08.985Z,85.05
2023-05-19T19:09:36.656Z,85.62
2023-05-19T19:12:04.324Z,85.80
2023-05-19T19:14:32.228Z,85.98
2023-05-19T19:16:59.871Z,86.15
2023-05-19T19:19:29.879Z,86.37
2023-05-19T19:21:57.865Z,86.16
2023-05-19T19:24:26.517Z,85.95
2023-05-19T19:26:54.120Z,86.15
2023-05-19T19:29:22.208Z,86.14
2023-05-19T19:31:49.906Z,86.30
2023-05-19T19:34:19.949Z,86.18
2023-05-19T19:36:48.057Z,86.08
2023-05-19T19:39:15.696Z,86.44
2023-05-19T19:41:43.354Z,87.24
2023-05-19T19:44:11.272Z,87.50
2023-05-19T19:46:38.855Z,87.88
2023-05-19T19:49:06.510Z,88.91
2023-05-19T19:51:34.454Z,88.82
2023-05-19T19:54:02.138Z,88.66
2023-05-19T19:56:29.728Z,88.31
2023-05-19T19:58:59.088Z,88.99
2023-05-19T20:01:27.930Z,88.37
2023-05-19T20:03:57.587Z,88.36
2023-05-19T20:06:25.157Z,89.98
2023-05-19T20:08:52.701Z,89.25
2023-05-19T20:11:22.914Z,88.79
2023-05-19T20:13:50.694Z,89.34
2023-05-19T20:16:18.466Z,88.85
2023-05-19T20:18:46.412Z,89.18
2023-05-19T20:21:13.967Z,89.02
2023-05-19T20:23:41.520Z,89.04
2023-05-19T20:26:12.992Z,88.75
2023-05-19T20:28:41.207Z,88.73
2023-05-19T20:31:09.125Z,88.68
2023-05-19T20:33:36.635Z,89.41
2023-05-19T20:36:06.188Z,89.42
2023-05-19T20:38:34.112Z,89.99
2023-05-19T20:41:02.140Z,89.85
2023-05-19T20:43:29.818Z,90.29
2023-05-19T20:45:57.978Z,89.97
2023-05-19T20:48:25.912Z,90.27
2023-05-19T20:50:54.384Z,90.40
2023-05-19T20:53:22.286Z,90.74
2023-05-19T20:55:49.968Z,91.05
2023-05-19T20:58:17.551Z,90.97
2023-05-19T21:00:45.546Z,90.91
2023-05-19T21:03:13.222Z,90.59
2023-05-19T21:05:40.945Z,91.14
2023-05-19T21:08:12.867Z,91.32
2023-05-19T21:10:40.994Z,91.55
2023-05-19T21:13:08.933Z,91.64
2023-05-19T21:15:36.479Z,92.42
2023-05-19T21:18:04.175Z,92.56
2023-05-19T21:20:32.273Z,92.21
2023-05-19T21:22:59.955Z,92.12
2023-05-19T21:25:27.956Z,92.76
2023-05-19T21:27:56.197Z,93.00
2023-05-19T21:30:24.581Z,93.24
2023-05-19T21:32:52.228Z,92.60
2023-05-19T21:35:20.157Z,92.59
2023-05-19T21:37:47.722Z,93.00
2023-05-19T21:40:15.249Z,94.19
2023-05-19T21:42:43.140Z,93.36
2023-05-19T21:45:11.126Z,93.58
2023-05-19T21:47:38.737Z,93.19
2023-05-19T21:50:07.454Z,93.83
2023-05-19T21:52:36.470Z,93.30
2023-05-19T21:55:04.394Z,93.45
2023-05-19T21:57:32.240Z,93.70
2023-05-19T21:59:59.766Z,94.28
2023-05-19T22:02:27.472Z,93.50
2023-05-19T22:04:55.349Z,93.92
2023-05-19T22:07:27.014Z,93.96
2023-05-19T22:09:55.026Z,95.57
2023-05-19T22:12:23.865Z,95.73
2023-05-19T22:14:51.439Z,95.43
2023-05-19T22:17:19.297Z,95.12
2023-05-19T22:19:46.885Z,95.48
2023-05-19T22:22:14.810Z,96.08
2023-05-19T22:24:43.220Z,95.93
2023-05-19T22:27:10.814Z,95.82
2023-05-19T22:29:41.401Z,95.21
2023-05-19T22:32:12.195Z,94.70
2023-05-19T22:34:40.314Z,95.14
2023-05-19T22:37:07.991Z,95.81
2023-05-19T22:39:35.881Z,96.05
2023-05-19T22:42:03.524Z,96.88
2023-05-19T22:44:31.263Z,97.16
2023-05-19T22:46:59.166Z,97.00
2023-05-19T22:49:27.519Z,96.98
2023-05-19T22:51:55.016Z,96.86
2023-05-19T22:54:23.062Z,96.83
2023-05-19T22:56:50.645Z,96.74
2023-05-19T22:59:18.270Z,96.79
2023-05-19T23:01:46.839Z,96.78
2023-05-19T23:04:14.681Z,96.70
2023-05-19T23:06:42.266Z,96.69
2023-05-19T23:09:10.148Z,96.70
2023-05-19T23:11:37.688Z,96.66
2023-05-19T23:14:05.310Z,96.84
2023-05-19T23:16:33.247Z,96.66
2023-05-19T23:19:01.053Z,96.19
2023-05-19T23:21:30.394Z,95.88
2023-05-19T23:23:58.502Z,95.84
2023-05-19T23:26:26.993Z,95.92
2023-05-19T23:28:54.616Z,95.91
2023-05-19T23:31:22.633Z,96.35
2023-05-19T23:33:50.524Z,96.37
2023-05-19T23:36:18.258Z,96.31
2023-05-19T23:38:46.116Z,96.02
2023-05-19T23:41:14.045Z,96.01
2023-05-19T23:43:41.520Z,95.88
2023-05-19T23:46:09.489Z,95.52
2023-05-19T23:48:37.083Z,95.29
2023-05-19T23:51:04.888Z,95.20
2023-05-19T23:53:32.839Z,95.09
2023-05-19T23:56:00.385Z,95.02
2023-05-19T23:58:28.039Z,94.97
